Time;durP1;ratioP1;P1;durP2;ratioP2;P2;SDS_P1;SDS_P2;PMS_P1;PMS_P2;Temp;Humidity;BMP_temperature;BMP_pressure;BME280_temperature;BME280_humidity;BME280_pressure;Samples;Min_cycle;Max_cycle;Signal;HPM_P1;HPM_P2
2021/11/16 00:01:16;;;;;;;51.22;25.48;;;7.80;75.40;;;;;;4995126;28;92738;-69
2021/11/16 00:03:43;;;;;;;52.92;25.92;;;7.80;75.50;;;;;;4993428;28;93064;-69
2021/11/16 00:06:10;;;;;;;54.58;25.60;;;7.80;75.10;;;;;;4995301;28;92952;-69
2021/11/16 00:08:37;;;;;;;54.10;22.60;;;7.70;75.40;;;;;;4994685;28;92357;-69
2021/11/16 00:11:06;;;;;;;54.38;26.98;;;7.70;75.40;;;;;;4993714;28;92397;-69
2021/11/16 00:13:33;;;;;;;55.42;24.15;;;7.70;75.20;;;;;;4993408;28;95314;-69
2021/11/16 00:16:00;;;;;;;57.58;27.40;;;7.70;75.50;;;;;;4994700;28;95480;-69
2021/11/16 00:18:29;;;;;;;59.80;26.50;;;7.70;75.60;;;;;;4994525;28;92477;-70
2021/11/16 00:20:57;;;;;;;56.90;27.27;;;7.70;75.40;;;;;;4994586;28;92416;-69
2021/11/16 00:23:32;;;;;;;60.03;28.60;;;7.70;75.50;;;;;;4994329;28;93049;-69
2021/11/16 00:26:01;;;;;;;55.38;26.65;;;7.70;75.20;;;;;;4994742;28;92890;-69
2021/11/16 00:28:28;;;;;;;55.55;26.63;;;7.70;75.00;;;;;;4994186;28;92389;-69
2021/11/16 00:30:55;;;;;;;56.78;26.83;;;7.70;75.30;;;;;;4995148;28;91873;-69
2021/11/16 00:33:23;;;;;;;54.35;26.80;;;7.70;75.30;;;;;;4993147;28;94217;-69
2021/11/16 00:35:50;;;;;;;62.17;29.13;;;7.70;75.20;;;;;;4994866;28;93008;-69
2021/11/16 00:38:18;;;;;;;58.10;27.27;;;7.60;75.70;;;;;;4991490;28;101558;-69
2021/11/16 00:40:47;;;;;;;60.05;26.35;;;7.60;76.00;;;;;;4994320;28;93650;-69
2021/11/16 00:43:15;;;;;;;54.13;25.88;;;7.60;76.00;;;;;;4994230;28;97421;-69
2021/11/16 00:45:44;;;;;;;62.67;26.88;;;7.60;75.90;;;;;;4992853;28;94042;-69
2021/11/16 00:48:12;;;;;;;54.92;22.85;;;7.60;75.70;;;;;;4993471;28;92486;-69
2021/11/16 00:50:42;;;;;;;57.65;23.88;;;7.60;75.90;;;;;;4993081;28;93080;-69
2021/11/16 00:53:09;;;;;;;58.08;26.25;;;7.50;75.80;;;;;;4994301;28;96192;-69
2021/11/16 00:55:36;;;;;;;55.92;26.02;;;7.50;76.50;;;;;;4996890;28;92887;-69
2021/11/16 00:58:03;;;;;;;62.17;27.15;;;7.50;76.70;;;;;;4997742;28;92417;-69
2021/11/16 01:00:31;;;;;;;59.05;28.63;;;7.50;76.60;;;;;;4995600;28;108693;-69
2021/11/16 01:02:59;;;;;;;55.20;24.58;;;7.50;75.80;;;;;;4996356;28;95437;-69
2021/11/16 01:05:26;;;;;;;58.42;27.67;;;7.50;75.90;;;;;;4996328;28;96402;-69
2021/11/16 01:07:53;;;;;;;62.70;28.73;;;7.50;75.90;;;;;;4997341;28;92446;-69
2021/11/16 01:10:22;;;;;;;60.67;28.55;;;7.50;75.70;;;;;;4997770;28;92938;-69
2021/11/16 01:12:50;;;;;;;61.15;26.38;;;7.50;75.80;;;;;;4995696;28;96036;-69
2021/11/16 01:15:18;;;;;;;58.97;26.25;;;7.50;75.80;;;;;;4996191;28;93143;-69
2021/11/16 01:17:45;;;;;;;59.20;25.77;;;7.50;75.70;;;;;;4997129;28;92517;-69
2021/11/16 01:20:14;;;;;;;58.30;26.50;;;7.50;76.30;;;;;;4996315;28;91829;-69
2021/11/16 01:22:42;;;;;;;61.00;27.55;;;7.40;76.70;;;;;;4997058;28;93222;-69
2021/11/16 01:25:10;;;;;;;66.20;27.73;;;7.40;76.40;;;;;;4995286;28;111047;-68
2021/11/16 01:27:39;;;;;;;62.72;26.60;;;7.40;76.90;;;;;;4995855;28;94855;-69
2021/11/16 01:30:12;;;;;;;70.32;31.20;;;7.40;76.50;;;;;;4979548;28;92449;-69
2021/11/16 01:33:27;;;;;;;63.27;28.40;;;7.40;76.40;;;;;;4997049;28;92717;-69
2021/11/16 01:35:27;;;;;;;55.33;25.83;;;7.40;77.00;;;;;;4989685;28;92980;-69
2021/11/16 01:37:54;;;;;;;67.55;28.95;;;7.40;76.70;;;;;;4995843;28;92837;-69
2021/11/16 01:40:21;;;;;;;68.80;27.60;;;7.40;76.40;;;;;;4996710;28;92499;-69
2021/11/16 01:42:50;;;;;;;68.20;28.98;;;7.40;76.30;;;;;;4995365;28;94938;-69
2021/11/16 01:45:19;;;;;;;67.80;29.08;;;7.40;76.70;;;;;;4997128;28;92771;-69
2021/11/16 01:47:47;;;;;;;67.05;28.83;;;7.40;76.50;;;;;;4995647;28;92433;-69
2021/11/16 01:50:18;;;;;;;68.88;29.63;;;7.40;76.80;;;;;;4997010;28;92458;-69
2021/11/16 01:52:45;;;;;;;68.50;28.35;;;7.40;76.70;;;;;;4995174;28;95512;-69
2021/11/16 01:55:15;;;;;;;65.40;28.98;;;7.40;76.70;;;;;;4996573;28;95341;-69
2021/11/16 01:57:43;;;;;;;62.40;28.92;;;7.40;76.40;;;;;;4995219;28;92505;-69
2021/11/16 02:00:16;;;;;;;71.18;30.27;;;7.40;76.20;;;;;;4995539;28;92610;-69
2021/11/16 02:02:43;;;;;;;67.60;29.02;;;7.40;76.40;;;;;;4996614;28;93142;-69
2021/11/16 02:05:11;;;;;;;73.40;30.73;;;7.40;76.60;;;;;;4994932;28;92520;-69
2021/11/16 02:07:47;;;;;;;72.28;30.55;;;7.40;76.70;;;;;;4996415;28;92458;-69
2021/11/16 02:10:14;;;;;;;70.70;31.20;;;7.40;76.50;;;;;;4997436;28;92090;-69
2021/11/16 02:12:41;;;;;;;73.53;31.42;;;7.40;76.60;;;;;;4995044;28;93148;-69
2021/11/16 02:15:09;;;;;;;73.00;29.85;;;7.50;76.40;;;;;;4995966;28;110442;-69
2021/11/16 02:17:37;;;;;;;72.72;30.65;;;7.50;76.40;;;;;;4995263;28;95185;-69
2021/11/16 02:20:07;;;;;;;73.28;29.80;;;7.60;76.30;;;;;;4995009;28;92473;-69
2021/11/16 02:22:34;;;;;;;75.10;31.33;;;7.60;76.40;;;;;;4996205;28;93171;-69
2021/11/16 02:25:01;;;;;;;66.88;28.70;;;7.60;76.40;;;;;;4978283;28;94209;-69
2021/11/16 02:27:28;;;;;;;76.68;30.23;;;7.60;76.50;;;;;;4996356;28;92355;-69
2021/11/16 02:29:55;;;;;;;72.05;29.33;;;7.60;76.50;;;;;;4996301;28;92817;-69
2021/11/16 02:32:22;;;;;;;77.18;31.80;;;7.60;76.30;;;;;;4994765;28;93062;-69
2021/11/16 02:34:49;;;;;;;75.18;30.13;;;7.60;76.30;;;;;;4996367;28;92813;-69
2021/11/16 02:37:16;;;;;;;69.72;29.20;;;7.70;76.50;;;;;;4996059;28;92537;-69
2021/11/16 02:39:43;;;;;;;68.97;28.80;;;7.70;77.40;;;;;;4995901;28;92423;-69
2021/11/16 02:42:10;;;;;;;71.80;30.20;;;7.70;76.50;;;;;;4994674;28;95590;-69
2021/11/16 02:44:40;;;;;;;66.57;28.85;;;7.70;76.30;;;;;;4995172;28;114509;-69
2021/11/16 02:47:07;;;;;;;71.40;31.02;;;7.70;76.30;;;;;;4995530;28;92345;-69
2021/11/16 02:49:35;;;;;;;67.30;28.33;;;7.70;76.20;;;;;;4996324;28;92305;-70
2021/11/16 02:52:10;;;;;;;70.20;27.55;;;7.70;76.60;;;;;;4994403;28;92437;-69
2021/11/16 02:54:37;;;;;;;68.18;30.83;;;7.70;76.80;;;;;;4994393;28;95910;-69
2021/11/16 02:57:09;;;;;;;66.45;27.58;;;7.60;77.10;;;;;;4994184;28;93303;-69
2021/11/16 02:59:37;;;;;;;67.55;29.30;;;7.60;76.90;;;;;;4994971;28;91760;-69
2021/11/16 03:02:04;;;;;;;71.25;30.60;;;7.60;76.90;;;;;;4995345;28;93199;-69
2021/11/16 03:04:33;;;;;;;66.32;28.10;;;7.60;76.80;;;;;;4995661;28;93789;-69
2021/11/16 03:07:02;;;;;;;69.93;29.40;;;7.60;77.10;;;;;;4992850;28;95739;-69
2021/11/16 03:09:30;;;;;;;66.13;27.67;;;7.60;76.80;;;;;;4995663;28;92507;-69
2021/11/16 03:11:58;;;;;;;72.78;30.10;;;7.60;77.10;;;;;;4993430;28;108657;-69
2021/11/16 03:14:27;;;;;;;67.97;29.35;;;7.60;76.80;;;;;;4995594;28;92997;-69
2021/11/16 03:16:55;;;;;;;65.43;26.50;;;7.60;76.60;;;;;;4994554;28;92450;-69
2021/11/16 03:19:23;;;;;;;66.63;29.05;;;7.60;77.20;;;;;;4994265;28;92543;-69
2021/11/16 03:21:55;;;;;;;71.55;31.80;;;7.60;76.50;;;;;;4993664;28;95694;-69
2021/11/16 03:24:25;;;;;;;67.38;28.73;;;7.60;76.70;;;;;;4995940;28;94872;-69
2021/11/16 03:26:52;;;;;;;79.40;32.75;;;7.60;76.70;;;;;;4995172;28;92429;-69
2021/11/16 03:29:23;;;;;;;69.32;30.13;;;7.60;77.00;;;;;;4995588;28;92422;-69
2021/11/16 03:32:18;;;;;;;79.50;31.77;;;7.50;77.10;;;;;;4993955;28;95537;-69
2021/11/16 03:34:47;;;;;;;74.10;29.05;;;7.60;77.20;;;;;;4995268;28;95540;-69
2021/11/16 03:37:18;;;;;;;70.07;30.20;;;7.50;76.90;;;;;;4995188;28;92453;-69
2021/11/16 03:39:45;;;;;;;71.63;31.58;;;7.50;76.90;;;;;;4995370;28;92449;-69
2021/11/16 03:42:13;;;;;;;80.25;30.50;;;7.50;76.70;;;;;;4993372;28;95684;-69
2021/11/16 03:44:40;;;;;;;73.25;31.70;;;7.50;76.50;;;;;;4995028;28;93053;-69
2021/11/16 03:47:08;;;;;;;74.15;29.85;;;7.60;76.80;;;;;;4977162;28;92512;-69
2021/11/16 03:49:35;;;;;;;78.88;32.13;;;7.60;76.40;;;;;;4995633;28;92103;-69
2021/11/16 03:52:02;;;;;;;72.53;29.48;;;7.60;76.30;;;;;;4994143;28;108737;-69
2021/11/16 03:54:29;;;;;;;72.68;31.08;;;7.60;76.20;;;;;;4995066;28;92875;-69
2021/11/16 03:57:01;;;;;;;73.13;30.83;;;7.60;76.20;;;;;;4993631;28;94842;-69
2021/11/16 03:59:30;;;;;;;73.13;30.58;;;7.60;76.30;;;;;;4993736;28;93499;-69
2021/11/16 04:01:58;;;;;;;78.63;33.25;;;7.60;76.20;;;;;;4981453;28;93177;-69
2021/11/16 04:04:26;;;;;;;75.57;31.25;;;7.60;76.30;;;;;;4974563;28;93087;-69
2021/11/16 04:06:53;;;;;;;74.75;31.95;;;7.60;76.50;;;;;;4973486;28;92490;-69
2021/11/16 04:09:20;;;;;;;80.00;33.85;;;7.70;76.10;;;;;;4975220;28;92543;-69
2021/11/16 04:11:47;;;;;;;71.90;31.35;;;7.70;76.00;;;;;;4974926;28;93173;-69
2021/11/16 04:14:15;;;;;;;78.10;33.40;;;7.60;75.90;;;;;;4973963;28;92857;-69
2021/11/16 04:16:42;;;;;;;83.65;34.67;;;7.60;76.10;;;;;;4974930;28;92553;-69
2021/11/16 04:19:09;;;;;;;75.22;32.33;;;7.60;76.20;;;;;;4974512;28;93261;-69
2021/11/16 04:21:36;;;;;;;79.45;30.23;;;7.60;76.30;;;;;;4973610;28;95586;-70
2021/11/16 04:24:03;;;;;;;83.78;32.60;;;7.60;76.30;;;;;;4974470;28;95259;-69
2021/11/16 04:26:30;;;;;;;75.53;31.02;;;7.60;76.50;;;;;;4973821;28;92358;-69
2021/11/16 04:28:57;;;;;;;72.78;33.13;;;7.60;76.30;;;;;;4976373;28;92827;-69
2021/11/16 04:31:24;;;;;;;78.05;32.60;;;7.60;76.30;;;;;;4978337;28;93137;-69
2021/11/16 04:33:53;;;;;;;75.80;32.67;;;7.60;76.30;;;;;;4978206;28;93990;-69
2021/11/16 04:36:22;;;;;;;82.38;33.95;;;7.60;76.50;;;;;;4978108;28;92480;-71
2021/11/16 04:38:49;;;;;;;80.38;33.72;;;7.60;76.50;;;;;;4978327;28;91788;-69
2021/11/16 04:41:16;;;;;;;75.05;31.88;;;7.60;76.40;;;;;;4977903;28;92869;-69
2021/11/16 04:43:43;;;;;;;74.32;32.50;;;7.60;76.40;;;;;;4978060;28;92819;-69
2021/11/16 04:46:15;;;;;;;78.43;32.00;;;7.60;76.40;;;;;;4975558;28;94817;-69
2021/11/16 05:04:52;;;;;;;71.43;30.67;;;7.60;76.30;;;;;;4978284;28;92868;-69
2021/11/16 05:07:22;;;;;;;70.63;30.95;;;7.60;76.50;;;;;;4976809;28;108477;-69
2021/11/16 05:09:54;;;;;;;79.78;31.15;;;7.60;76.30;;;;;;4976447;28;92506;-69
2021/11/16 05:12:24;;;;;;;78.90;32.30;;;7.60;76.30;;;;;;4976194;28;95512;-69
2021/11/16 05:14:52;;;;;;;73.60;30.38;;;7.70;76.50;;;;;;4977437;28;95235;-69
2021/11/16 05:17:19;;;;;;;77.55;31.95;;;7.70;76.40;;;;;;4976050;28;92448;-69
2021/11/16 05:19:46;;;;;;;78.45;31.08;;;7.70;76.10;;;;;;4977564;28;92465;-69
2021/11/16 05:22:13;;;;;;;74.57;31.42;;;7.60;75.90;;;;;;4975785;28;94118;-69
2021/11/16 05:24:40;;;;;;;78.35;32.53;;;7.60;76.20;;;;;;4977389;28;92908;-69
2021/11/16 05:27:08;;;;;;;82.05;31.50;;;7.60;76.30;;;;;;4977342;28;92391;-69
2021/11/16 05:29:35;;;;;;;73.18;30.85;;;7.60;76.30;;;;;;4975641;28;108920;-69
2021/11/16 05:32:03;;;;;;;75.25;31.10;;;7.60;76.30;;;;;;4977168;28;93102;-69
2021/11/16 05:34:30;;;;;;;75.97;31.08;;;7.60;76.60;;;;;;4977083;28;93905;-69
2021/11/16 05:36:58;;;;;;;74.75;31.92;;;7.60;76.60;;;;;;4976089;28;94777;-69
2021/11/16 05:39:25;;;;;;;77.57;32.75;;;7.60;76.50;;;;;;4976722;28;92479;-69
2021/11/16 05:41:52;;;;;;;76.28;31.15;;;7.70;76.50;;;;;;4976534;28;93033;-69
2021/11/16 05:44:19;;;;;;;72.65;30.40;;;7.70;76.50;;;;;;4975377;28;93895;-69
2021/11/16 05:46:46;;;;;;;72.75;30.98;;;7.70;76.50;;;;;;4975652;28;93043;-69
2021/11/16 05:49:13;;;;;;;75.47;30.88;;;7.70;76.30;;;;;;4975285;28;92547;-69
2021/11/16 05:51:40;;;;;;;78.13;32.75;;;7.70;76.20;;;;;;4976865;28;93001;-69
2021/11/16 05:54:15;;;;;;;73.38;29.45;;;7.70;76.30;;;;;;4975714;28;94978;-69
2021/11/16 05:56:43;;;;;;;69.85;30.35;;;7.80;76.40;;;;;;4976897;28;92525;-69
2021/11/16 05:59:10;;;;;;;76.88;30.92;;;7.80;76.20;;;;;;4976796;28;92998;-69
2021/11/16 06:01:37;;;;;;;76.07;31.13;;;7.80;76.60;;;;;;4975130;28;97346;-69
2021/11/16 06:04:06;;;;;;;83.00;33.33;;;7.80;76.00;;;;;;4975347;28;95119;-69
2021/11/16 06:06:35;;;;;;;71.38;31.30;;;7.80;75.80;;;;;;4976484;28;92461;-69
2021/11/16 06:09:05;;;;;;;72.75;28.88;;;7.80;76.10;;;;;;4976588;28;92459;-69
2021/11/16 06:11:33;;;;;;;74.82;29.13;;;7.80;75.90;;;;;;4974830;28;96462;-69
2021/11/16 06:14:00;;;;;;;71.65;29.92;;;7.80;75.90;;;;;;4976541;28;92866;-69
2021/11/16 06:16:28;;;;;;;75.95;29.65;;;7.80;76.20;;;;;;4976285;28;92693;-69
2021/11/16 06:18:59;;;;;;;78.68;31.20;;;7.80;76.40;;;;;;4974901;28;106377;-69
2021/11/16 06:21:27;;;;;;;72.63;30.00;;;7.70;76.30;;;;;;4974689;28;94237;-69
2021/11/16 06:23:55;;;;;;;68.90;30.80;;;7.70;76.40;;;;;;4975033;28;92947;-69
2021/11/16 06:26:23;;;;;;;79.30;29.92;;;7.70;76.60;;;;;;4973750;28;94872;-69
2021/11/16 06:28:51;;;;;;;73.22;30.02;;;7.70;76.50;;;;;;4976452;28;92486;-69
2021/11/16 06:31:21;;;;;;;78.90;31.45;;;7.60;76.50;;;;;;4975883;28;93075;-69
2021/11/16 06:33:48;;;;;;;69.10;28.58;;;7.60;76.60;;;;;;4976134;28;93039;-69
2021/11/16 06:36:15;;;;;;;72.25;31.85;;;7.60;76.60;;;;;;4975945;28;92926;-68
2021/11/16 06:38:42;;;;;;;76.07;32.30;;;7.70;76.60;;;;;;4976325;28;92443;-69
2021/11/16 06:41:09;;;;;;;71.72;30.55;;;7.70;76.80;;;;;;4975450;28;110722;-69
2021/11/16 06:43:37;;;;;;;78.35;31.85;;;7.60;76.90;;;;;;4976140;28;92731;-69
2021/11/16 06:46:05;;;;;;;73.55;30.48;;;7.60;77.00;;;;;;4974834;28;92560;-69
2021/11/16 06:48:32;;;;;;;80.75;32.63;;;7.60;76.80;;;;;;4975325;28;92635;-69
2021/11/16 06:50:59;;;;;;;72.03;29.50;;;7.60;77.00;;;;;;4973146;28;95384;-69
2021/11/16 06:53:32;;;;;;;75.30;30.48;;;7.50;77.00;;;;;;4974575;28;95286;-69
2021/11/16 06:56:02;;;;;;;79.87;31.23;;;7.50;77.20;;;;;;4976239;28;92343;-69
2021/11/16 06:58:29;;;;;;;71.72;29.70;;;7.50;77.40;;;;;;4975801;28;92460;-69
2021/11/16 07:00:56;;;;;;;69.45;30.02;;;7.50;77.40;;;;;;4975697;28;93123;-69
2021/11/16 07:03:24;;;;;;;72.50;29.30;;;7.50;77.40;;;;;;4974138;28;92917;-69
2021/11/16 07:05:58;;;;;;;74.55;31.40;;;7.40;77.30;;;;;;4974031;28;106257;-70
2021/11/16 07:08:38;;;;;;;73.75;30.90;;;7.50;77.40;;;;;;4976092;28;91652;-70
2021/11/16 07:11:20;;;;;;;74.95;30.95;;;7.40;77.30;;;;;;4975717;28;92513;-68
2021/11/16 07:14:06;;;;;;;67.22;28.27;;;7.50;77.60;;;;;;4975458;28;92846;-70
2021/11/16 07:16:36;;;;;;;67.38;28.38;;;7.40;77.40;;;;;;4973092;28;94920;-70
2021/11/16 07:19:08;;;;;;;56.58;23.98;;;7.40;77.20;;;;;;4974360;28;92549;-71
2021/11/16 07:21:45;;;;;;;71.32;27.75;;;7.30;77.10;;;;;;4975223;28;93187;-71
2021/11/16 07:24:16;;;;;;;67.22;25.65;;;7.30;77.50;;;;;;4973930;28;94062;-68
2021/11/16 07:26:44;;;;;;;65.35;26.52;;;7.30;77.60;;;;;;4973982;28;92395;-69
2021/11/16 07:29:15;;;;;;;66.78;26.83;;;7.40;77.40;;;;;;4975524;28;92595;-69
2021/11/16 07:31:43;;;;;;;59.00;24.25;;;7.30;77.20;;;;;;4975430;28;93127;-69
2021/11/16 07:34:16;;;;;;;63.40;26.27;;;7.40;77.50;;;;;;4974303;28;94197;-69
2021/11/16 07:37:03;;;;;;;60.80;24.50;;;7.40;77.40;;;;;;4974892;28;92383;-69
2021/11/16 07:39:42;;;;;;;59.17;24.23;;;7.40;77.20;;;;;;4975286;28;92578;-69
2021/11/16 07:42:09;;;;;;;58.50;24.42;;;7.40;77.00;;;;;;4974006;28;95528;-69
2021/11/16 07:44:37;;;;;;;61.65;25.13;;;7.40;76.70;;;;;;4974971;28;95023;-69
2021/11/16 07:47:05;;;;;;;56.03;23.92;;;7.40;76.80;;;;;;4974892;28;93454;-69
2021/11/16 07:49:32;;;;;;;56.33;24.88;;;7.50;76.90;;;;;;4975309;28;92524;-69
2021/11/16 07:51:59;;;;;;;59.95;25.02;;;7.50;77.00;;;;;;4975155;28;93128;-69
2021/11/16 07:54:31;;;;;;;65.93;23.70;;;7.50;77.10;;;;;;4973684;28;92887;-69
2021/11/16 07:57:03;;;;;;;60.03;24.55;;;7.50;76.80;;;;;;4975439;28;92446;-69
2021/11/16 07:59:31;;;;;;;64.07;24.60;;;7.50;77.20;;;;;;4974931;28;91890;-69
2021/11/16 08:02:08;;;;;;;65.47;24.48;;;7.50;77.20;;;;;;4975220;28;93020;-70
2021/11/16 08:05:19;;;;;;;57.45;23.77;;;7.50;77.20;;;;;;4974566;28;93137;-69
2021/11/16 08:07:43;;;;;;;46.38;19.45;;;7.50;77.10;;;;;;4970560;28;94917;-69
2021/11/16 08:10:16;;;;;;;43.38;19.38;;;7.50;76.10;;;;;;4975171;28;92462;-69
2021/11/16 08:12:46;;;;;;;47.53;22.15;;;7.50;75.90;;;;;;4974773;28;93037;-70
2021/11/16 08:15:13;;;;;;;47.60;20.10;;;7.50;75.60;;;;;;4974972;28;92727;-70
2021/11/16 08:17:41;;;;;;;51.38;22.77;;;7.50;75.90;;;;;;4974295;28;102147;-69
2021/11/16 08:20:14;;;;;;;56.42;22.58;;;7.50;75.90;;;;;;4974952;28;92574;-69
2021/11/16 08:22:45;;;;;;;59.38;22.48;;;7.50;75.90;;;;;;4973434;28;93092;-70
2021/11/16 08:25:12;;;;;;;55.47;22.58;;;7.50;76.40;;;;;;4975254;28;92892;-69
2021/11/16 08:27:43;;;;;;;53.03;23.25;;;7.50;76.50;;;;;;4974556;28;94681;-69
2021/11/16 08:30:16;;;;;;;57.35;23.23;;;7.50;76.60;;;;;;4975090;28;92959;-70
2021/11/16 08:32:45;;;;;;;53.53;23.90;;;7.50;77.00;;;;;;4972033;28;95439;-70
2021/11/16 08:35:22;;;;;;;63.90;25.70;;;7.50;77.50;;;;;;4973106;28;97940;-69
2021/11/16 08:37:49;;;;;;;61.78;24.27;;;7.50;77.30;;;;;;4957163;28;92439;-70
2021/11/16 08:40:19;;;;;;;62.33;25.27;;;7.50;77.00;;;;;;4973174;28;92482;-71
2021/11/16 08:43:02;;;;;;;57.70;25.85;;;7.50;77.10;;;;;;4973253;28;95482;-69
2021/11/16 08:45:37;;;;;;;60.53;23.63;;;7.60;77.00;;;;;;4973102;28;94054;-69
2021/11/16 08:48:07;;;;;;;61.03;26.38;;;7.60;76.90;;;;;;4974684;28;92557;-69
2021/11/16 08:50:46;;;;;;;64.30;25.45;;;7.60;77.50;;;;;;4974943;28;91744;-69
2021/11/16 08:53:20;;;;;;;59.10;25.63;;;7.60;77.00;;;;;;4974530;28;93943;-69
2021/11/16 08:55:47;;;;;;;66.30;27.00;;;7.60;76.90;;;;;;4974443;28;92949;-69
2021/11/16 08:58:15;;;;;;;63.60;26.45;;;7.60;76.80;;;;;;4972750;28;109354;-69
2021/11/16 09:00:46;;;;;;;60.50;26.40;;;7.60;76.60;;;;;;4956517;28;92457;-69
2021/11/16 09:03:24;;;;;;;64.88;26.25;;;7.70;76.60;;;;;;4974416;28;93036;-69
2021/11/16 09:05:53;;;;;;;65.47;27.23;;;7.70;76.60;;;;;;4972597;28;95714;-69
2021/11/16 09:08:31;;;;;;;59.35;25.90;;;7.60;76.80;;;;;;4973084;28;92627;-69
2021/11/16 09:11:14;;;;;;;57.95;25.67;;;7.70;76.80;;;;;;4974227;28;92420;-69
2021/11/16 09:13:44;;;;;;;56.77;24.17;;;7.70;77.80;;;;;;4974235;28;93103;-69
2021/11/16 09:16:15;;;;;;;54.55;23.73;;;7.60;76.80;;;;;;4975273;28;94070;-69
2021/11/16 09:18:45;;;;;;;53.40;24.83;;;7.70;76.70;;;;;;4976262;28;92476;-69
2021/11/16 09:21:13;;;;;;;59.05;24.02;;;7.70;76.50;;;;;;4959647;28;92513;-69
2021/11/16 09:23:50;;;;;;;57.75;24.73;;;7.70;76.40;;;;;;4974442;28;96533;-69
2021/11/16 09:29:01;;;;;;;60.78;25.67;;;7.70;76.80;;;;;;4977570;28;92489;-69
2021/11/16 09:31:33;;;;;;;59.60;24.00;;;7.70;76.80;;;;;;4977723;28;92347;-69
2021/11/16 09:34:06;;;;;;;62.28;25.63;;;7.70;76.80;;;;;;4977208;28;93190;-69
2021/11/16 09:36:37;;;;;;;64.37;26.63;;;7.70;76.50;;;;;;4977273;28;92712;-69
2021/11/16 09:39:08;;;;;;;63.65;24.48;;;7.70;76.30;;;;;;4976131;28;92411;-69
2021/11/16 09:41:42;;;;;;;65.68;25.88;;;7.70;76.40;;;;;;4977444;28;91722;-69
2021/11/16 09:44:16;;;;;;;58.38;24.30;;;7.70;76.40;;;;;;4977144;28;93156;-69
2021/11/16 09:46:50;;;;;;;56.33;24.80;;;7.60;77.20;;;;;;4975094;28;94042;-69
2021/11/16 09:49:35;;;;;;;796.63;401.75;;;7.60;76.30;;;;;;4974503;28;94884;-69
2021/11/16 09:52:17;;;;;;;64.45;27.02;;;7.60;76.80;;;;;;4976376;28;92459;-68
2021/11/16 09:54:45;;;;;;;59.10;25.48;;;7.60;76.70;;;;;;4977024;28;92994;-69
2021/11/16 09:57:13;;;;;;;59.78;25.58;;;7.60;77.40;;;;;;4975477;28;94053;-69
2021/11/16 09:59:43;;;;;;;59.22;25.48;;;7.60;76.60;;;;;;4976430;28;95229;-69
2021/11/16 10:02:31;;;;;;;60.38;23.75;;;7.60;76.50;;;;;;4976834;28;92904;-69
2021/11/16 10:05:06;;;;;;;59.97;31.48;;;7.70;76.50;;;;;;4975070;28;94136;-69
2021/11/16 10:07:34;;;;;;;48.88;21.48;;;7.60;77.30;;;;;;4975559;28;94191;-69
2021/11/16 10:10:04;;;;;;;56.83;32.42;;;7.60;76.20;;;;;;4975083;28;92366;-69
2021/11/16 10:12:47;;;;;;;82.68;56.60;;;7.60;76.60;;;;;;4975606;28;92574;-68
2021/11/16 10:15:16;;;;;;;72.50;44.03;;;7.60;77.30;;;;;;4975511;28;95404;-69
2021/11/16 10:17:48;;;;;;;57.67;24.52;;;7.50;77.40;;;;;;4958756;28;95240;-69
2021/11/16 10:20:21;;;;;;;58.42;30.45;;;7.60;77.40;;;;;;4976869;28;92463;-69
2021/11/16 10:23:10;;;;;;;57.97;27.73;;;7.60;78.20;;;;;;4976518;28;92395;-69
2021/11/16 10:25:40;;;;;;;59.65;29.33;;;7.60;77.10;;;;;;4976287;28;93081;-69
2021/11/16 10:28:10;;;;;;;61.53;30.48;;;7.60;77.60;;;;;;4974575;28;95603;-69
2021/11/16 10:30:39;;;;;;;52.35;23.67;;;7.70;77.30;;;;;;4976707;28;92548;-69
2021/11/16 10:33:16;;;;;;;51.47;24.02;;;7.70;77.10;;;;;;4974842;28;98581;-69
2021/11/16 10:35:49;;;;;;;60.20;28.23;;;7.70;76.90;;;;;;4976085;28;92995;-69
2021/11/16 10:38:22;;;;;;;61.67;29.63;;;7.80;77.00;;;;;;4976387;28;92879;-69
2021/11/16 10:40:51;;;;;;;49.60;23.08;;;7.70;77.00;;;;;;4974624;28;94892;-69
2021/11/16 10:43:18;;;;;;;56.38;25.73;;;7.70;76.80;;;;;;4974311;28;109912;-69
2021/11/16 10:45:48;;;;;;;60.17;25.73;;;7.80;77.30;;;;;;4975882;28;96182;-69
2021/11/16 10:48:19;;;;;;;57.42;24.67;;;7.80;77.30;;;;;;4975529;28;93071;-69
2021/11/16 10:50:49;;;;;;;58.35;24.67;;;7.90;76.80;;;;;;4976442;28;92483;-69
2021/11/16 10:53:20;;;;;;;61.92;25.48;;;7.90;76.90;;;;;;4976080;28;92972;-69
2021/11/16 10:55:53;;;;;;;57.40;24.83;;;7.90;77.10;;;;;;4975637;28;94283;-69
2021/11/16 10:58:38;;;;;;;56.33;24.23;;;8.00;76.70;;;;;;4974779;28;94126;-69
2021/11/16 11:01:07;;;;;;;53.58;24.73;;;8.00;76.50;;;;;;4975824;28;92553;-69
2021/11/16 11:03:45;;;;;;;63.17;26.20;;;8.00;76.60;;;;;;4975806;28;92819;-69
2021/11/16 11:06:21;;;;;;;59.35;24.95;;;8.00;76.60;;;;;;4974592;28;95456;-69
2021/11/16 11:08:48;;;;;;;62.05;26.05;;;8.10;76.40;;;;;;4974359;28;96427;-69
2021/11/16 11:11:41;;;;;;;55.53;25.42;;;8.10;76.50;;;;;;4975309;28;96619;-69
2021/11/16 11:14:12;;;;;;;56.63;24.30;;;8.20;76.40;;;;;;4975913;28;92835;-69
2021/11/16 11:16:56;;;;;;;62.28;27.95;;;8.20;76.20;;;;;;4974498;28;93152;-69
2021/11/16 11:19:28;;;;;;;56.47;24.58;;;8.20;75.80;;;;;;4975482;28;93077;-69
2021/11/16 11:21:59;;;;;;;59.88;25.63;;;8.20;75.50;;;;;;4975722;28;92825;-68
2021/11/16 11:24:37;;;;;;;59.78;25.63;;;8.20;75.60;;;;;;4976279;28;91793;-69
2021/11/16 11:29:52;;;;;;;54.50;25.33;;;8.20;75.60;;;;;;4975732;28;92903;-69
2021/11/16 11:32:29;;;;;;;50.33;22.08;;;8.20;75.60;;;;;;4974586;28;94839;-69
2021/11/16 11:35:01;;;;;;;53.50;23.45;;;8.20;75.70;;;;;;4975689;28;92423;-69
2021/11/16 11:37:38;;;;;;;44.83;20.80;;;8.20;75.30;;;;;;4973526;28;94164;-69
2021/11/16 11:40:08;;;;;;;43.35;20.30;;;8.20;73.90;;;;;;4974681;28;93022;-69
2021/11/16 11:43:00;;;;;;;51.17;21.27;;;8.20;74.50;;;;;;4975343;28;92459;-69
2021/11/16 11:45:39;;;;;;;45.53;21.02;;;8.20;74.60;;;;;;4973934;28;92537;-69
2021/11/16 11:48:18;;;;;;;50.50;22.13;;;8.20;74.80;;;;;;4974386;28;96471;-69
2021/11/16 11:51:10;;;;;;;54.47;24.05;;;8.30;74.80;;;;;;4975096;28;92739;-70
2021/11/16 11:53:41;;;;;;;53.30;26.67;;;8.30;74.70;;;;;;4975327;28;92564;-69
2021/11/16 11:56:13;;;;;;;64.45;31.92;;;8.30;74.80;;;;;;4973563;28;92395;-69
2021/11/16 11:58:43;;;;;;;50.60;24.52;;;8.30;74.70;;;;;;4972564;28;96100;-69
2021/11/16 12:01:17;;;;;;;61.22;29.85;;;8.30;74.70;;;;;;4974242;28;98036;-69
2021/11/16 12:03:46;;;;;;;56.10;24.27;;;8.40;74.90;;;;;;4974916;28;92411;-69
2021/11/16 12:06:14;;;;;;;55.97;24.88;;;8.30;74.80;;;;;;4974903;28;92461;-69
2021/11/16 12:08:41;;;;;;;58.40;24.88;;;8.30;75.10;;;;;;4941204;28;95895;-69
2021/11/16 12:11:08;;;;;;;52.83;22.50;;;8.30;74.60;;;;;;4974710;28;92702;-70
2021/11/16 12:13:38;;;;;;;50.03;22.88;;;8.20;74.70;;;;;;4973345;28;94168;-70
2021/11/16 12:16:19;;;;;;;51.67;22.45;;;8.20;74.70;;;;;;4975065;28;91744;-70
2021/11/16 12:18:48;;;;;;;45.45;21.88;;;8.20;74.80;;;;;;4973478;28;94193;-70
2021/11/16 12:21:27;;;;;;;48.63;21.10;;;8.20;74.80;;;;;;4973112;28;92896;-70
2021/11/16 12:23:59;;;;;;;44.25;19.15;;;8.20;74.50;;;;;;4973755;28;95187;-70
2021/11/16 12:26:28;;;;;;;51.50;21.23;;;8.10;74.50;;;;;;4975116;28;92471;-70
2021/11/16 12:29:14;;;;;;;50.33;22.85;;;8.10;74.50;;;;;;4973069;28;104061;-70
2021/11/16 12:31:42;;;;;;;48.40;22.15;;;8.20;74.40;;;;;;4974981;28;92961;-70
2021/11/16 12:34:09;;;;;;;49.88;22.25;;;8.10;74.50;;;;;;4974401;28;99762;-70
2021/11/16 12:36:43;;;;;;;54.65;22.40;;;8.20;74.70;;;;;;4974725;28;92474;-70
2021/11/16 12:39:20;;;;;;;52.08;21.10;;;8.30;74.70;;;;;;4974217;28;100775;-70
2021/11/16 12:41:53;;;;;;;49.50;21.77;;;8.30;74.60;;;;;;4975053;28;92730;-70
2021/11/16 12:44:32;;;;;;;51.08;22.63;;;8.30;74.80;;;;;;4974650;28;92479;-70
2021/11/16 12:47:05;;;;;;;51.65;21.73;;;8.30;74.90;;;;;;4973059;28;92562;-70
2021/11/16 12:49:34;;;;;;;51.00;21.75;;;8.30;74.70;;;;;;4974677;28;95309;-70
2021/11/16 12:52:06;;;;;;;52.28;21.75;;;8.30;75.10;;;;;;4976538;28;96602;-70
2021/11/16 12:54:34;;;;;;;57.40;22.33;;;8.30;75.30;;;;;;4978111;28;92350;-70
2021/11/16 12:57:01;;;;;;;58.40;22.77;;;8.30;75.20;;;;;;4976523;28;92496;-70
2021/11/16 12:59:34;;;;;;;83.63;36.25;;;8.30;75.30;;;;;;4976443;28;93093;-70
2021/11/16 13:02:25;;;;;;;58.85;30.48;;;8.40;75.40;;;;;;4977778;28;92911;-71
2021/11/16 13:04:55;;;;;;;51.40;22.80;;;8.40;75.20;;;;;;4977906;28;96846;-71
2021/11/16 13:07:35;;;;;;;51.25;22.35;;;8.30;75.20;;;;;;4976511;28;91768;-70
2021/11/16 13:10:02;;;;;;;59.50;25.67;;;8.30;75.70;;;;;;4977699;28;92387;-70
2021/11/16 13:12:35;;;;;;;51.22;22.20;;;8.30;75.70;;;;;;4977498;28;95342;-70
2021/11/16 13:15:08;;;;;;;52.88;22.95;;;8.40;76.10;;;;;;4976518;28;94862;-70